Time;durP1;ratioP1;P1;durP2;ratioP2;P2;SDS_P1;SDS_P2;PMS_P1;PMS_P2;Temp;Humidity;BMP_temperature;BMP_pressure;BME280_temperature;BME280_humidity;BME280_pressure;Samples;Min_cycle;Max_cycle;Signal;HPM_P1;HPM_P2
2023/10/05 00:01:12;;;;;;;5.13;3.80;;;12.80;99.90;;;;;;5033754;28;20977;-74
2023/10/05 00:03:44;;;;;;;10.97;4.40;;;12.90;99.90;;;;;;5033716;28;20410;-74
2023/10/05 00:06:14;;;;;;;12.63;3.20;;;12.80;99.90;;;;;;5033544;28;20492;-75
2023/10/05 00:08:47;;;;;;;6.60;3.33;;;12.90;99.90;;;;;;5033342;28;20411;-75
2023/10/05 00:11:23;;;;;;;5.23;2.90;;;12.90;99.90;;;;;;5032451;28;20501;-75
2023/10/05 00:13:49;;;;;;;6.90;3.00;;;12.90;99.90;;;;;;5033502;28;20878;-75
2023/10/05 00:16:20;;;;;;;5.87;3.03;;;12.90;99.90;;;;;;5033361;28;20917;-75
2023/10/05 00:18:47;;;;;;;6.70;2.77;;;12.90;99.90;;;;;;5033246;28;20478;-75
2023/10/05 00:21:15;;;;;;;8.20;4.20;;;12.90;99.90;;;;;;5032043;28;20418;-75
2023/10/05 00:23:41;;;;;;;9.43;3.70;;;13.00;99.90;;;;;;5033307;28;20407;-74
2023/10/05 00:26:08;;;;;;;15.33;3.43;;;13.00;99.90;;;;;;5033170;28;20838;-75
2023/10/05 00:28:35;;;;;;;3.77;2.53;;;13.00;99.90;;;;;;5033073;28;20493;-75
2023/10/05 00:31:01;;;;;;;8.30;3.93;;;13.00;99.90;;;;;;5033174;28;20901;-74
2023/10/05 00:33:27;;;;;;;3.07;2.20;;;13.00;99.90;;;;;;5032879;28;20418;-75
2023/10/05 00:35:52;;;;;;;6.40;2.60;;;13.00;99.90;;;;;;5031343;28;20426;-75
2023/10/05 00:38:19;;;;;;;11.73;3.87;;;13.00;99.90;;;;;;5032800;28;20167;-74
2023/10/05 00:40:57;;;;;;;12.37;2.97;;;13.00;99.90;;;;;;5032942;28;20163;-74
2023/10/05 00:45:49;;;;;;;9.73;3.00;;;13.10;99.90;;;;;;5032689;28;20706;-74
2023/10/05 00:51:04;;;;;;;5.40;3.17;;;13.20;99.90;;;;;;5032877;28;20409;-75
2023/10/05 00:53:30;;;;;;;6.20;3.07;;;13.20;99.90;;;;;;5032555;28;20865;-75
2023/10/05 00:56:12;;;;;;;7.90;3.37;;;13.20;99.90;;;;;;5032640;28;20462;-75
2023/10/05 00:58:44;;;;;;;7.87;2.77;;;13.30;99.90;;;;;;5032466;28;20402;-74
2023/10/05 01:01:33;;;;;;;8.70;3.30;;;13.30;99.90;;;;;;5032476;28;20927;-75
2023/10/05 01:06:54;;;;;;;7.03;2.53;;;13.30;99.90;;;;;;5032469;28;20495;-75
2023/10/05 01:09:39;;;;;;;6.73;3.30;;;13.20;99.90;;;;;;5032412;28;20402;-75
2023/10/05 01:12:26;;;;;;;5.50;3.70;;;13.20;99.90;;;;;;5032462;28;20894;-75
2023/10/05 01:14:52;;;;;;;5.67;3.20;;;13.20;99.90;;;;;;5032124;28;20438;-76
2023/10/05 01:17:25;;;;;;;10.20;3.40;;;13.20;99.90;;;;;;5030880;28;20446;-76
2023/10/05 01:19:57;;;;;;;10.37;3.50;;;13.20;99.90;;;;;;5032206;28;20408;-75
2023/10/05 01:22:32;;;;;;;6.07;3.03;;;13.20;99.90;;;;;;5032161;28;20414;-75
2023/10/05 01:25:00;;;;;;;7.90;2.40;;;13.20;99.90;;;;;;5032168;28;20413;-75
2023/10/05 01:27:29;;;;;;;8.77;2.80;;;13.30;99.90;;;;;;5031969;28;20417;-75
2023/10/05 01:29:56;;;;;;;9.57;3.10;;;13.40;99.90;;;;;;5032281;28;20410;-74
2023/10/05 01:32:21;;;;;;;8.10;2.70;;;13.40;99.90;;;;;;5032091;28;20910;-75
2023/10/05 01:34:49;;;;;;;6.13;2.80;;;13.50;99.90;;;;;;5030640;28;20515;-74
2023/10/05 01:37:18;;;;;;;12.37;3.30;;;13.50;99.90;;;;;;5031651;28;20517;-75
2023/10/05 01:39:44;;;;;;;5.70;2.70;;;13.60;99.90;;;;;;5030885;28;20414;-75
2023/10/05 01:42:14;;;;;;;4.10;2.43;;;13.60;99.90;;;;;;5031803;28;20586;-74
2023/10/05 01:44:49;;;;;;;7.63;2.70;;;13.60;99.90;;;;;;5031568;28;20406;-75
2023/10/05 01:47:16;;;;;;;3.07;1.77;;;13.70;99.90;;;;;;5030553;28;21035;-74
2023/10/05 01:49:45;;;;;;;4.50;2.07;;;13.70;99.90;;;;;;5031944;28;20417;-74
2023/10/05 01:52:11;;;;;;;8.60;2.87;;;13.70;99.90;;;;;;5030610;28;20426;-75
2023/10/05 01:54:36;;;;;;;6.00;3.10;;;13.80;99.90;;;;;;5031623;28;20458;-75
2023/10/05 01:57:07;;;;;;;5.30;2.40;;;13.70;99.90;;;;;;5031578;28;20430;-74
2023/10/05 01:59:34;;;;;;;4.70;2.20;;;13.80;99.90;;;;;;5031866;28;20217;-75
2023/10/05 02:02:10;;;;;;;11.20;2.83;;;13.80;99.90;;;;;;5030391;28;20414;-74
2023/10/05 02:04:49;;;;;;;3.70;2.50;;;13.70;99.90;;;;;;5031974;28;20410;-75
2023/10/05 02:07:19;;;;;;;8.23;3.17;;;13.70;99.90;;;;;;5031660;28;20785;-76
2023/10/05 02:09:44;;;;;;;6.43;2.73;;;13.70;99.90;;;;;;5031742;28;20407;-74
2023/10/05 02:12:10;;;;;;;4.67;2.90;;;13.60;99.90;;;;;;5031615;28;20444;-75
2023/10/05 02:14:41;;;;;;;3.20;2.33;;;13.60;99.90;;;;;;5031731;28;20566;-75
2023/10/05 02:17:13;;;;;;;7.77;2.33;;;13.60;99.90;;;;;;5034946;28;20175;-76
2023/10/05 02:19:39;;;;;;;4.00;2.30;;;13.50;99.90;;;;;;5035641;28;20408;-75
2023/10/05 02:22:11;;;;;;;4.73;2.50;;;13.50;99.90;;;;;;5034393;28;20414;-75
2023/10/05 02:24:40;;;;;;;7.20;3.03;;;13.30;99.90;;;;;;5035666;28;20558;-75
2023/10/05 02:27:14;;;;;;;7.00;2.20;;;13.30;99.90;;;;;;5033911;28;20488;-75
2023/10/05 02:29:41;;;;;;;10.47;2.73;;;13.30;99.90;;;;;;5035529;28;20479;-75
2023/10/05 02:32:10;;;;;;;5.97;2.40;;;13.30;99.90;;;;;;5035389;28;20541;-74
2023/10/05 02:37:05;;;;;;;7.27;3.70;;;13.30;99.90;;;;;;5035201;28;20454;-75
2023/10/05 02:39:37;;;;;;;2.63;1.70;;;13.20;99.90;;;;;;5035301;28;20894;-75
2023/10/05 02:42:11;;;;;;;5.50;2.70;;;13.10;99.90;;;;;;5035182;28;20401;-75
2023/10/05 02:44:38;;;;;;;3.47;2.77;;;13.10;99.90;;;;;;5035204;28;20394;-75
2023/10/05 02:47:10;;;;;;;4.10;2.17;;;13.00;99.90;;;;;;5033594;28;20426;-75
2023/10/05 02:49:43;;;;;;;3.67;2.47;;;13.10;99.90;;;;;;5035193;28;20406;-75
2023/10/05 02:52:13;;;;;;;5.97;3.30;;;13.00;99.90;;;;;;5035073;28;20406;-75
2023/10/05 02:54:41;;;;;;;2.33;1.87;;;13.00;99.90;;;;;;5034970;28;20806;-74
2023/10/05 02:57:14;;;;;;;3.63;2.00;;;13.00;99.90;;;;;;5034706;28;20972;-74
2023/10/05 02:59:40;;;;;;;8.30;2.60;;;12.90;99.90;;;;;;5034874;28;21012;-75
2023/10/05 03:02:08;;;;;;;6.23;2.60;;;13.00;99.90;;;;;;5035053;28;20429;-74
2023/10/05 03:07:18;;;;;;;5.73;2.37;;;12.90;99.90;;;;;;5034777;28;20944;-76
2023/10/05 03:09:46;;;;;;;10.70;3.13;;;12.80;99.90;;;;;;5034752;28;20960;-75
2023/10/05 03:12:12;;;;;;;5.73;2.17;;;12.80;99.90;;;;;;5034606;28;20410;-74
2023/10/05 03:14:40;;;;;;;2.43;2.23;;;12.80;99.90;;;;;;5034472;28;20979;-75
2023/10/05 03:17:13;;;;;;;8.00;2.57;;;12.80;99.90;;;;;;5034297;28;20426;-75
2023/10/05 03:19:39;;;;;;;5.30;3.23;;;12.70;99.90;;;;;;5034669;28;20394;-75
2023/10/05 03:22:08;;;;;;;8.80;2.73;;;12.70;99.90;;;;;;5034362;28;20405;-75
2023/10/05 03:24:36;;;;;;;8.67;2.37;;;12.70;99.90;;;;;;5034522;28;20908;-75
2023/10/05 03:27:07;;;;;;;5.03;2.70;;;12.70;99.90;;;;;;5032434;28;20430;-75
2023/10/05 03:29:38;;;;;;;7.57;3.20;;;12.80;99.90;;;;;;5033208;28;20422;-74
2023/10/05 03:34:34;;;;;;;6.50;2.20;;;12.80;99.90;;;;;;5034317;28;20793;-74
2023/10/05 03:37:06;;;;;;;3.67;2.90;;;12.70;99.90;;;;;;5034056;28;20422;-75
2023/10/05 03:39:38;;;;;;;7.37;2.80;;;12.80;99.90;;;;;;5034211;28;20746;-76
2023/10/05 03:42:05;;;;;;;9.83;2.10;;;12.80;99.90;;;;;;5033116;28;20540;-76
2023/10/05 03:44:31;;;;;;;5.20;2.30;;;12.80;99.90;;;;;;5034430;28;20409;-75
2023/10/05 03:46:57;;;;;;;7.67;4.07;;;12.80;99.90;;;;;;5033710;28;20430;-74
2023/10/05 03:49:23;;;;;;;4.40;2.60;;;12.80;99.90;;;;;;5034140;28;20410;-75
2023/10/05 03:51:51;;;;;;;4.20;2.23;;;12.80;99.90;;;;;;5034103;28;20422;-75
2023/10/05 03:54:21;;;;;;;6.87;2.47;;;12.80;99.90;;;;;;5033804;28;20225;-76
2023/10/05 03:56:50;;;;;;;3.80;2.30;;;12.80;99.90;;;;;;5033356;28;20419;-76
2023/10/05 03:59:19;;;;;;;5.60;2.60;;;12.80;99.90;;;;;;5033774;28;20805;-75
2023/10/05 04:01:48;;;;;;;4.30;2.40;;;12.80;99.90;;;;;;5032543;28;20457;-75
2023/10/05 04:04:16;;;;;;;5.27;2.57;;;12.80;99.90;;;;;;5032375;28;20418;-75
2023/10/05 04:06:44;;;;;;;5.67;3.03;;;12.70;99.90;;;;;;5033534;28;20484;-75
2023/10/05 04:09:15;;;;;;;6.93;2.90;;;12.70;99.90;;;;;;5033497;28;20411;-75
2023/10/05 04:11:42;;;;;;;8.40;2.73;;;12.70;99.90;;;;;;5033565;28;20410;-75
2023/10/05 04:14:09;;;;;;;4.37;2.23;;;12.80;99.90;;;;;;5033412;28;20450;-74
2023/10/05 04:16:34;;;;;;;8.70;2.70;;;12.70;99.90;;;;;;5033365;28;20437;-74
2023/10/05 04:19:04;;;;;;;2.70;1.83;;;12.80;99.90;;;;;;5033199;28;20398;-74
2023/10/05 04:21:30;;;;;;;4.30;2.10;;;12.80;99.90;;;;;;5033623;28;20168;-76
2023/10/05 04:23:59;;;;;;;5.50;2.37;;;12.80;99.90;;;;;;5033381;28;20414;-74
2023/10/05 04:26:33;;;;;;;4.07;2.30;;;12.80;99.90;;;;;;5033184;28;21048;-75
2023/10/05 04:29:04;;;;;;;4.80;2.73;;;12.80;99.90;;;;;;5033150;28;20437;-74
2023/10/05 04:31:29;;;;;;;5.60;2.10;;;12.80;99.90;;;;;;5032009;28;20415;-75
2023/10/05 04:33:55;;;;;;;9.77;2.63;;;12.90;99.90;;;;;;5033176;28;20450;-76
2023/10/05 04:36:22;;;;;;;3.90;2.40;;;12.90;99.90;;;;;;5033016;28;20527;-76
2023/10/05 04:38:55;;;;;;;7.13;2.10;;;12.90;99.90;;;;;;5032145;28;20402;-75
2023/10/05 04:41:28;;;;;;;4.80;2.70;;;12.90;99.90;;;;;;5033017;28;20407;-74
2023/10/05 04:43:55;;;;;;;4.90;2.50;;;12.90;99.90;;;;;;5033026;28;20766;-75
2023/10/05 04:46:21;;;;;;;5.33;2.23;;;13.00;99.90;;;;;;5031483;28;20445;-74
2023/10/05 04:48:55;;;;;;;5.43;1.60;;;12.90;99.90;;;;;;5032743;28;20410;-74
2023/10/05 04:51:23;;;;;;;6.03;2.20;;;12.90;99.90;;;;;;5031616;28;20175;-74
2023/10/05 04:53:53;;;;;;;5.07;2.40;;;12.90;99.90;;;;;;5032579;28;20458;-75
2023/10/05 04:56:35;;;;;;;5.33;2.30;;;12.90;99.90;;;;;;5032664;28;20500;-76
2023/10/05 05:07:09;;;;;;;2.80;1.60;;;12.80;99.90;;;;;;5032326;28;20417;-75
2023/10/05 05:09:38;;;;;;;4.63;2.13;;;12.80;99.90;;;;;;5032642;28;20913;-76
2023/10/05 05:12:08;;;;;;;4.40;1.93;;;12.80;99.90;;;;;;5032490;28;20414;-74
2023/10/05 05:14:42;;;;;;;3.73;2.23;;;12.80;99.90;;;;;;5031863;28;20450;-75
2023/10/05 05:17:22;;;;;;;8.30;2.93;;;12.80;99.90;;;;;;5032423;28;20529;-74
2023/10/05 05:19:48;;;;;;;9.07;2.67;;;12.80;99.90;;;;;;5031055;28;20468;-75
2023/10/05 05:22:14;;;;;;;4.53;1.77;;;12.80;99.90;;;;;;5032258;28;20952;-75
2023/10/05 05:24:41;;;;;;;3.37;1.90;;;12.80;99.90;;;;;;5032346;28;20569;-74
2023/10/05 05:29:38;;;;;;;14.53;3.07;;;12.80;99.90;;;;;;5032571;28;20412;-75
2023/10/05 05:32:10;;;;;;;5.10;2.97;;;12.90;99.90;;;;;;5030878;28;20501;-74
2023/10/05 05:34:41;;;;;;;2.53;1.93;;;12.80;99.90;;;;;;5030882;28;20200;-74
2023/10/05 05:37:08;;;;;;;8.47;2.40;;;12.90;99.90;;;;;;5031927;28;20478;-74
2023/10/05 05:39:43;;;;;;;4.03;1.80;;;12.90;99.90;;;;;;5032131;28;20489;-74
2023/10/05 05:42:15;;;;;;;4.03;1.80;;;12.90;99.90;;;;;;5032070;28;20396;-74
2023/10/05 05:44:43;;;;;;;7.20;3.10;;;12.90;99.90;;;;;;5032054;28;20498;-74
2023/10/05 05:47:10;;;;;;;5.90;2.07;;;13.00;99.90;;;;;;5031721;28;20438;-74
2023/10/05 05:49:40;;;;;;;3.70;2.07;;;13.00;99.90;;;;;;5030528;28;20415;-75
2023/10/05 05:52:08;;;;;;;5.93;2.33;;;13.00;99.90;;;;;;5031709;28;20429;-75
2023/10/05 05:54:37;;;;;;;7.60;2.10;;;13.00;99.90;;;;;;5030374;28;20544;-75
2023/10/05 05:57:11;;;;;;;1.53;1.43;;;13.10;99.90;;;;;;5031452;28;20453;-74
2023/10/05 05:59:41;;;;;;;8.00;2.37;;;13.10;99.90;;;;;;5031872;28;20437;-74
2023/10/05 06:02:08;;;;;;;4.03;2.30;;;13.20;99.90;;;;;;5031869;28;20776;-75
2023/10/05 06:04:39;;;;;;;2.63;1.47;;;13.20;99.90;;;;;;5031762;28;20406;-74
2023/10/05 06:07:11;;;;;;;5.10;2.30;;;13.20;99.90;;;;;;5031419;28;20467;-74
2023/10/05 06:09:45;;;;;;;9.20;3.30;;;13.20;99.90;;;;;;5031607;28;20407;-77
2023/10/05 06:12:15;;;;;;;7.20;2.70;;;13.30;99.90;;;;;;5031559;28;20811;-75
2023/10/05 06:14:41;;;;;;;6.13;2.10;;;13.30;99.90;;;;;;5031524;28;20808;-75
2023/10/05 06:17:08;;;;;;;6.27;2.23;;;13.40;99.90;;;;;;5031388;28;20411;-76
2023/10/05 06:19:35;;;;;;;5.03;2.23;;;13.40;99.90;;;;;;5031422;28;20403;-71
2023/10/05 06:22:02;;;;;;;5.10;1.73;;;13.40;99.90;;;;;;5031653;28;20467;-72
2023/10/05 06:24:27;;;;;;;4.10;1.67;;;13.50;99.90;;;;;;5031624;28;20407;-70
2023/10/05 06:26:53;;;;;;;8.57;2.90;;;13.80;99.90;;;;;;5031235;28;20445;-71
2023/10/05 06:29:18;;;;;;;2.50;1.73;;;13.80;99.90;;;;;;5031618;28;20647;-72
2023/10/05 06:31:44;;;;;;;4.30;2.70;;;13.80;99.90;;;;;;5031480;28;20172;-72
2023/10/05 06:34:09;;;;;;;6.13;2.00;;;13.80;99.90;;;;;;5031259;28;20211;-71
2023/10/05 06:36:37;;;;;;;3.63;2.17;;;13.90;99.90;;;;;;5031363;28;20184;-72
2023/10/05 06:39:04;;;;;;;4.23;2.40;;;14.00;99.90;;;;;;5031281;28;20247;-71
2023/10/05 06:41:30;;;;;;;4.77;2.40;;;14.10;99.90;;;;;;5031310;28;20846;-72
2023/10/05 06:43:57;;;;;;;8.07;3.57;;;14.20;99.90;;;;;;5031341;28;20497;-71
2023/10/05 06:46:27;;;;;;;5.23;2.70;;;14.20;99.90;;;;;;5031349;28;20187;-71
2023/10/05 06:48:53;;;;;;;6.07;2.20;;;14.30;99.90;;;;;;5031316;28;20418;-71
2023/10/05 06:51:29;;;;;;;2.40;2.20;;;14.20;99.90;;;;;;5031399;28;20406;-71
2023/10/05 06:53:57;;;;;;;4.03;1.83;;;14.30;99.90;;;;;;5031148;28;20496;-72
2023/10/05 06:56:23;;;;;;;3.77;1.60;;;14.40;99.90;;;;;;5031180;28;20430;-72
2023/10/05 06:58:49;;;;;;;5.40;2.90;;;14.50;99.90;;;;;;5031246;28;20464;-72
2023/10/05 07:01:14;;;;;;;3.10;1.90;;;14.50;99.90;;;;;;5030453;28;20406;-73
2023/10/05 07:03:40;;;;;;;4.73;2.00;;;14.70;99.90;;;;;;5034910;28;20250;-73
2023/10/05 07:06:06;;;;;;;3.73;1.80;;;14.80;99.90;;;;;;5034772;28;20188;-72
2023/10/05 07:08:33;;;;;;;3.40;1.80;;;14.80;99.90;;;;;;5034599;28;20765;-73
2023/10/05 07:10:59;;;;;;;3.83;2.23;;;14.80;99.90;;;;;;5033537;28;20407;-73
2023/10/05 07:13:25;;;;;;;12.47;2.57;;;15.00;99.90;;;;;;5034624;28;20409;-72
2023/10/05 07:15:50;;;;;;;7.00;2.20;;;14.90;99.90;;;;;;5034508;28;20465;-72
2023/10/05 07:18:18;;;;;;;2.70;1.70;;;15.00;99.90;;;;;;5034452;28;20754;-72
2023/10/05 07:20:44;;;;;;;6.70;2.13;;;15.10;99.90;;;;;;5034642;28;20159;-72
2023/10/05 07:23:10;;;;;;;4.00;2.17;;;15.20;99.90;;;;;;5034352;28;20429;-72
2023/10/05 07:25:37;;;;;;;4.00;1.90;;;15.40;99.90;;;;;;5034355;28;20836;-73
2023/10/05 07:28:03;;;;;;;7.13;2.00;;;15.40;99.90;;;;;;5034275;28;20171;-73
2023/10/05 07:30:29;;;;;;;3.27;2.00;;;15.60;99.90;;;;;;5034438;28;20739;-72
2023/10/05 07:32:55;;;;;;;6.20;2.20;;;15.70;99.90;;;;;;5034326;28;20449;-72
2023/10/05 07:35:21;;;;;;;10.63;1.70;;;15.70;99.90;;;;;;5034058;28;20832;-72
2023/10/05 07:37:47;;;;;;;2.43;1.70;;;15.70;99.90;;;;;;5034122;28;20168;-73
2023/10/05 07:40:13;;;;;;;3.50;1.90;;;15.80;99.90;;;;;;5034085;28;20434;-73
2023/10/05 07:42:39;;;;;;;4.67;2.50;;;15.90;99.90;;;;;;5034164;28;20449;-73
2023/10/05 07:45:11;;;;;;;3.20;1.67;;;16.10;99.90;;;;;;5034062;28;20199;-73
2023/10/05 07:47:43;;;;;;;4.03;1.63;;;16.20;99.90;;;;;;5033974;28;20314;-72
2023/10/05 07:50:15;;;;;;;8.23;1.73;;;16.20;99.90;;;;;;5034082;28;20406;-71
2023/10/05 07:52:48;;;;;;;2.90;1.87;;;16.30;99.90;;;;;;5033919;28;20428;-71
2023/10/05 07:55:13;;;;;;;6.90;2.47;;;16.40;99.90;;;;;;5032614;28;20476;-72
2023/10/05 07:57:39;;;;;;;3.27;2.03;;;16.60;99.90;;;;;;5033893;28;20912;-72
2023/10/05 08:00:06;;;;;;;7.50;2.13;;;16.60;99.90;;;;;;5045521;28;20179;-72
2023/10/05 08:02:31;;;;;;;10.03;3.20;;;16.70;99.90;;;;;;5053711;28;20166;-72
2023/10/05 08:04:57;;;;;;;3.70;1.90;;;16.80;99.90;;;;;;5053389;28;20436;-72
2023/10/05 08:07:23;;;;;;;11.73;2.70;;;16.90;99.90;;;;;;5053115;28;20642;-72
2023/10/05 08:09:49;;;;;;;5.00;2.30;;;17.10;99.90;;;;;;5053389;28;20170;-72
2023/10/05 08:12:15;;;;;;;5.20;1.50;;;17.30;99.90;;;;;;5053569;28;20475;-71
2023/10/05 08:14:40;;;;;;;5.03;1.93;;;17.70;99.90;;;;;;5053337;28;20255;-72
2023/10/05 08:17:06;;;;;;;3.57;2.43;;;17.90;99.90;;;;;;5053173;28;20421;-72
2023/10/05 08:19:31;;;;;;;4.70;1.43;;;18.40;99.90;;;;;;5053501;28;20845;-72
2023/10/05 08:21:57;;;;;;;2.73;1.40;;;19.00;99.90;;;;;;5053321;28;20169;-72
2023/10/05 08:24:23;;;;;;;4.10;2.40;;;19.60;99.90;;;;;;5053273;28;20167;-72
2023/10/05 08:26:50;;;;;;;6.10;2.10;;;20.30;99.90;;;;;;5052880;28;20190;-72
2023/10/05 08:29:22;;;;;;;7.07;1.87;;;20.80;99.90;;;;;;5053136;28;20432;-71
2023/10/05 08:31:51;;;;;;;4.53;1.97;;;21.20;99.90;;;;;;5052656;28;20752;-70
2023/10/05 08:34:20;;;;;;;7.00;2.23;;;21.70;99.90;;;;;;5053074;28;20449;-71
2023/10/05 08:36:53;;;;;;;3.33;2.00;;;21.90;99.90;;;;;;5052724;28;20457;-72
2023/10/05 08:39:25;;;;;;;5.47;2.00;;;22.00;99.90;;;;;;5051771;28;20406;-71
2023/10/05 08:41:54;;;;;;;3.67;2.10;;;21.90;99.90;;;;;;5053011;28;20926;-71
2023/10/05 08:44:26;;;;;;;3.33;2.00;;;21.60;99.90;;;;;;5052983;28;20421;-71
2023/10/05 08:46:55;;;;;;;5.40;2.00;;;21.50;99.90;;;;;;5052541;28;20487;-71
2023/10/05 08:49:23;;;;;;;3.10;1.77;;;21.00;99.90;;;;;;5052820;28;20463;-71
2023/10/05 08:51:49;;;;;;;5.30;2.53;;;20.90;99.90;;;;;;5052793;28;20398;-72
2023/10/05 08:54:15;;;;;;;3.97;2.00;;;20.60;99.90;;;;;;5052634;28;21017;-72
2023/10/05 08:56:47;;;;;;;4.30;1.97;;;20.50;99.90;;;;;;5052637;28;20496;-71
2023/10/05 08:59:13;;;;;;;2.87;2.00;;;20.40;99.90;;;;;;5051154;28;20190;-71
2023/10/05 09:01:42;;;;;;;3.17;2.17;;;20.20;99.90;;;;;;5052490;28;20463;-71
2023/10/05 09:06:55;;;;;;;7.63;1.60;;;19.80;99.90;;;;;;5052693;28;20422;-72
2023/10/05 09:12:19;;;;;;;5.30;2.30;;;20.10;99.90;;;;;;5052439;28;20465;-72
2023/10/05 09:14:46;;;;;;;8.30;2.43;;;20.20;99.90;;;;;;5052182;28;20451;-71
2023/10/05 09:17:15;;;;;;;4.87;1.80;;;20.10;99.90;;;;;;5052246;28;20402;-71
2023/10/05 09:19:43;;;;;;;6.07;2.07;;;20.10;99.90;;;;;;5052283;28;20488;-72
2023/10/05 09:24:34;;;;;;;3.17;1.90;;;20.20;99.90;;;;;;5051984;28;20444;-71
2023/10/05 09:27:13;;;;;;;2.83;1.73;;;20.30;99.90;;;;;;5051950;28;20217;-71
2023/10/05 09:29:40;;;;;;;4.60;2.27;;;20.30;99.90;;;;;;5052171;28;20167;-71
2023/10/05 09:32:11;;;;;;;5.70;1.87;;;20.00;99.90;;;;;;5052330;28;20401;-71
2023/10/05 09:34:44;;;;;;;5.20;1.60;;;19.90;99.90;;;;;;5052046;28;20449;-72
2023/10/05 09:37:11;;;;;;;7.63;1.77;;;19.70;99.90;;;;;;5051816;28;20404;-71
2023/10/05 09:39:49;;;;;;;10.17;3.60;;;19.60;99.90;;;;;;5050735;28;20405;-70
2023/10/05 09:42:27;;;;;;;7.60;1.60;;;19.50;99.90;;;;;;5052099;28;20466;-71
2023/10/05 09:44:57;;;;;;;7.10;1.93;;;19.30;99.90;;;;;;5051902;28;20408;-71
2023/10/05 09:47:32;;;;;;;8.33;2.47;;;19.20;99.90;;;;;;5032936;28;20509;-72
2023/10/05 09:50:09;;;;;;;4.80;1.80;;;19.10;99.90;;;;;;5025500;28;20414;-72
2023/10/05 09:52:43;;;;;;;4.47;2.20;;;19.30;99.90;;;;;;5031395;28;20466;-72
2023/10/05 09:55:12;;;;;;;4.47;2.23;;;19.30;99.90;;;;;;5031472;28;20467;-71
2023/10/05 09:57:41;;;;;;;9.80;2.03;;;19.30;99.90;;;;;;5031399;28;20468;-71
2023/10/05 10:00:57;;;;;;;3.37;1.57;;;19.20;99.90;;;;;;5031904;28;20952;-70
2023/10/05 10:03:01;;;;;;;7.30;2.10;;;19.30;99.90;;;;;;5027776;28;20477;-71
2023/10/05 10:05:51;;;;;;;4.40;1.57;;;19.30;99.90;;;;;;5023837;28;20456;-71
2023/10/05 10:08:27;;;;;;;3.00;1.67;;;19.30;99.90;;;;;;5030350;28;20413;-72
2023/10/05 10:11:06;;;;;;;6.17;1.97;;;19.50;99.90;;;;;;5031682;28;20428;-71
2023/10/05 10:13:37;;;;;;;6.30;2.30;;;19.60;99.90;;;;;;5032087;28;20782;-71
2023/10/05 10:16:41;;;;;;;5.03;2.13;;;19.40;99.90;;;;;;5031606;28;20423;-71
2023/10/05 10:19:19;;;;;;;4.90;1.63;;;19.40;99.90;;;;;;5028311;28;20441;-71
2023/10/05 10:21:57;;;;;;;10.80;1.83;;;19.30;99.90;;;;;;5022311;28;20818;-71
2023/10/05 10:24:28;;;;;;;3.83;1.87;;;19.20;99.90;;;;;;5019486;28;20921;-71
2023/10/05 10:27:07;;;;;;;7.60;2.10;;;19.20;99.90;;;;;;5016718;28;20435;-71
2023/10/05 10:29:53;;;;;;;3.73;2.30;;;19.30;99.90;;;;;;5011996;28;20407;-71
2023/10/05 10:32:30;;;;;;;6.80;2.43;;;19.40;99.90;;;;;;5011964;28;20435;-71
2023/10/05 10:34:57;;;;;;;11.50;1.87;;;19.30;99.90;;;;;;5011386;28;20458;-71
2023/10/05 10:37:42;;;;;;;9.10;2.53;;;19.20;99.90;;;;;;5012323;28;20477;-71
2023/10/05 10:43:06;;;;;;;2.50;2.27;;;19.10;99.90;;;;;;5020897;28;20418;-71
2023/10/05 10:45:34;;;;;;;5.27;1.90;;;19.00;99.90;;;;;;5015401;28;20562;-72
2023/10/05 10:48:00;;;;;;;3.20;1.93;;;18.90;99.90;;;;;;5015048;28;20438;-70
2023/10/05 10:50:31;;;;;;;3.90;2.00;;;18.70;99.90;;;;;;5015370;28;20496;-71
2023/10/05 10:52:58;;;;;;;8.13;2.67;;;18.70;99.90;;;;;;5015369;28;20579;-71
2023/10/05 10:55:39;;;;;;;3.73;2.07;;;18.60;99.90;;;;;;5015153;28;20554;-71
2023/10/05 10:58:08;;;;;;;3.80;1.57;;;18.60;99.90;;;;;;5014995;28;20422;-71
2023/10/05 11:03:10;;;;;;;3.27;1.73;;;18.60;99.90;;;;;;5015409;28;20406;-71
2023/10/05 11:05:47;;;;;;;2.17;1.37;;;18.70;99.90;;;;;;5015017;28;20423;-73
2023/10/05 11:08:20;;;;;;;8.13;2.17;;;18.80;99.90;;;;;;5014936;28;20419;-72
2023/10/05 11:10:55;;;;;;;3.60;1.73;;;18.90;99.90;;;;;;5015020;28;20466;-73
2023/10/05 11:13:21;;;;;;;9.63;2.40;;;19.00;99.90;;;;;;5015010;28;20410;-73
2023/10/05 11:16:00;;;;;;;4.27;2.23;;;19.10;99.90;;;;;;5014682;28;20462;-73
2023/10/05 11:18:30;;;;;;;4.90;2.10;;;19.30;99.90;;;;;;5014747;28;20410;-73
2023/10/05 11:21:17;;;;;;;6.30;1.93;;;19.40;99.90;;;;;;5014961;28;20391;-73
2023/10/05 11:23:57;;;;;;;3.77;1.77;;;19.70;99.90;;;;;;5014430;28;20763;-73
2023/10/05 11:28:57;;;;;;;4.97;1.73;;;20.20;99.90;;;;;;5014581;28;20911;-75
2023/10/05 11:31:26;;;;;;;3.53;1.80;;;20.50;99.90;;;;;;5014751;28;20988;-73
2023/10/05 11:33:53;;;;;;;5.33;2.10;;;20.90;99.90;;;;;;5014450;28;20404;-72
2023/10/05 11:36:27;;;;;;;4.93;1.90;;;20.90;99.90;;;;;;5014475;28;20422;-73
2023/10/05 11:38:57;;;;;;;3.70;2.73;;;21.00;99.90;;;;;;5013110;28;20940;-72
2023/10/05 11:41:30;;;;;;;4.97;2.03;;;21.00;99.90;;;;;;5013238;28;20415;-73
2023/10/05 11:43:56;;;;;;;4.57;1.37;;;20.90;99.90;;;;;;5013114;28;20778;-73
2023/10/05 11:46:26;;;;;;;5.13;1.83;;;21.20;99.90;;;;;;5014270;28;20435;-72
2023/10/05 11:48:55;;;;;;;3.97;2.27;;;21.70;99.90;;;;;;5012532;28;20423;-72
2023/10/05 11:51:42;;;;;;;3.60;1.73;;;22.40;99.90;;;;;;5014495;28;20457;-73
2023/10/05 11:54:12;;;;;;;4.73;2.00;;;23.40;99.90;;;;;;5014164;28;20971;-73
2023/10/05 11:56:41;;;;;;;7.13;3.93;;;25.00;99.90;;;;;;5014068;28;20419;-73
2023/10/05 11:59:10;;;;;;;5.83;3.50;;;26.70;93.40;;;;;;5013967;28;20423;-73
2023/10/05 12:01:40;;;;;;;2.50;1.70;;;29.20;90.20;;;;;;5014095;28;20800;-74
2023/10/05 12:04:07;;;;;;;8.07;2.63;;;31.60;60.10;;;;;;5014083;28;20403;-74
2023/10/05 12:06:33;;;;;;;5.57;1.83;;;33.40;50.40;;;;;;5013859;28;20431;-74
2023/10/05 12:09:06;;;;;;;3.17;2.10;;;34.90;46.30;;;;;;5013708;28;20462;-74
2023/10/05 12:11:33;;;;;;;5.77;2.37;;;36.60;43.70;;;;;;5014060;28;20409;-74
2023/10/05 12:13:59;;;;;;;2.23;1.90;;;38.50;40.70;;;;;;5013861;28;20850;-74
2023/10/05 12:16:32;;;;;;;5.53;2.47;;;40.30;35.80;;;;;;5012390;28;20467;-75
2023/10/05 12:19:27;;;;;;;5.37;2.40;;;41.70;32.30;;;;;;5013609;28;20191;-74
2023/10/05 12:21:55;;;;;;;2.53;1.70;;;41.80;29.70;;;;;;5013705;28;20422;-74
2023/10/05 12:24:21;;;;;;;4.00;2.03;;;43.20;28.80;;;;;;5012382;28;20422;-74
2023/10/05 12:26:47;;;;;;;3.23;1.60;;;43.70;26.50;;;;;;5012209;28;20429;-74
2023/10/05 12:29:12;;;;;;;4.77;3.90;;;41.50;24.90;;;;;;5012126;28;20922;-75
2023/10/05 12:31:42;;;;;;;3.00;2.30;;;40.70;27.00;;;;;;5012254;28;20180;-74
2023/10/05 12:34:09;;;;;;;5.40;2.40;;;41.00;27.80;;;;;;5013343;28;20191;-74
2023/10/05 12:36:35;;;;;;;3.67;2.00;;;42.10;27.50;;;;;;5013291;28;20463;-75
2023/10/05 12:39:01;;;;;;;5.90;5.30;;;43.40;26.70;;;;;;5013238;28;20407;-74
2023/10/05 12:41:36;;;;;;;4.20;3.80;;;44.50;25.20;;;;;;5013428;28;20407;-75
2023/10/05 12:44:09;;;;;;;3.70;2.10;;;44.90;25.60;;;;;;5013400;28;20626;-75
2023/10/05 12:46:39;;;;;;;5.23;2.20;;;44.30;23.80;;;;;;5011857;28;20533;-74
2023/10/05 12:49:11;;;;;;;5.00;2.23;;;42.00;24.00;;;;;;5013026;28;20418;-74
2023/10/05 12:51:38;;;;;;;1.87;1.67;;;39.80;25.30;;;;;;5013332;28;20415;-73
2023/10/05 12:54:08;;;;;;;2.20;1.73;;;39.80;26.00;;;;;;5012642;28;20892;-74
2023/10/05 12:56:35;;;;;;;3.20;1.80;;;39.70;26.00;;;;;;5012943;28;20516;-75
2023/10/05 12:59:03;;;;;;;3.33;2.20;;;39.70;26.90;;;;;;5010827;28;20423;-75
2023/10/05 13:01:29;;;;;;;3.73;1.80;;;40.40;26.20;;;;;;5012894;28;20422;-75
2023/10/05 13:03:55;;;;;;;2.77;2.10;;;40.90;26.10;;;;;;5011600;28;20419;-75
2023/10/05 13:06:20;;;;;;;3.23;1.83;;;40.30;25.30;;;;;;5012548;28;20266;-75
2023/10/05 13:08:46;;;;;;;2.00;1.80;;;40.50;25.80;;;;;;5012669;28;20169;-75
2023/10/05 13:11:11;;;;;;;5.50;2.10;;;40.10;26.00;;;;;;5012825;28;20610;-74
2023/10/05 13:13:39;;;;;;;6.00;2.07;;;39.60;26.20;;;;;;5012756;28;20256;-74
2023/10/05 13:16:13;;;;;;;2.43;1.93;;;39.50;26.70;;;;;;5012320;28;20203;-75
2023/10/05 13:18:44;;;;;;;2.53;2.33;;;39.50;26.60;;;;;;5012629;28;20466;-74
2023/10/05 13:21:11;;;;;;;4.97;2.60;;;39.20;26.30;;;;;;5012705;28;20410;-74
2023/10/05 13:23:38;;;;;;;3.30;1.80;;;39.10;26.70;;;;;;5012645;28;20407;-74
2023/10/05 13:26:06;;;;;;;4.90;1.80;;;38.70;25.20;;;;;;5012384;28;20435;-75
2023/10/05 13:28:32;;;;;;;2.80;2.20;;;37.50;25.30;;;;;;5012302;28;20774;-74
2023/10/05 13:30:58;;;;;;;2.40;1.83;;;37.20;27.00;;;;;;5012375;28;20407;-74
2023/10/05 13:33:47;;;;;;;4.13;1.90;;;36.80;26.70;;;;;;5012477;28;20474;-74
2023/10/05 13:36:14;;;;;;;5.03;2.43;;;36.30;27.70;;;;;;5012054;28;20985;-74
2023/10/05 13:38:43;;;;;;;5.67;4.63;;;36.50;28.60;;;;;;5012182;28;20435;-74
2023/10/05 13:41:14;;;;;;;2.80;1.80;;;36.70;28.20;;;;;;5011092;28;20511;-74